Time;durP1;ratioP1;P1;durP2;ratioP2;P2;SDS_P1;SDS_P2;PMS_P1;PMS_P2;Temp;Humidity;BMP_temperature;BMP_pressure;BME280_temperature;BME280_humidity;BME280_pressure;Samples;Min_cycle;Max_cycle;Signal;HPM_P1;HPM_P2
2022/10/05 00:00:01;;;;;;;12.60;7.10;;;11.60;95.00;;;;;;5030695;28;20581;-71
2022/10/05 00:02:26;;;;;;;12.60;7.70;;;11.70;94.90;;;;;;5029839;28;20196;-69
2022/10/05 00:04:55;;;;;;;12.30;6.60;;;11.60;94.80;;;;;;5031442;28;20211;-71
2022/10/05 00:07:22;;;;;;;10.70;7.10;;;11.60;94.80;;;;;;5033107;28;20177;-70
2022/10/05 00:09:56;;;;;;;10.70;6.70;;;11.50;94.90;;;;;;5032737;28;20421;-72
2022/10/05 00:12:23;;;;;;;14.07;8.50;;;11.50;95.10;;;;;;5040593;28;20494;-71
2022/10/05 00:14:54;;;;;;;11.30;7.03;;;11.40;95.00;;;;;;5033521;28;21041;-70
2022/10/05 00:17:22;;;;;;;15.27;8.20;;;11.40;95.10;;;;;;5040974;28;20423;-71
2022/10/05 00:19:51;;;;;;;14.43;7.93;;;11.40;95.10;;;;;;5036658;28;20462;-70
2022/10/05 00:22:23;;;;;;;16.40;7.87;;;11.50;95.20;;;;;;5035103;28;20481;-71
2022/10/05 00:24:54;;;;;;;12.33;7.73;;;11.40;95.20;;;;;;5033609;28;20509;-70
2022/10/05 00:27:33;;;;;;;10.00;7.07;;;11.50;95.20;;;;;;5036719;28;20428;-70
2022/10/05 00:30:06;;;;;;;15.27;8.17;;;11.40;95.20;;;;;;5035565;28;20420;-73
2022/10/05 00:32:32;;;;;;;15.70;7.43;;;11.40;95.30;;;;;;5035658;28;20480;-71
2022/10/05 00:34:57;;;;;;;13.57;8.00;;;11.40;95.40;;;;;;5033224;28;20998;-73
2022/10/05 00:37:23;;;;;;;17.53;8.53;;;11.40;95.20;;;;;;5039393;28;20455;-72
2022/10/05 00:39:48;;;;;;;13.40;7.70;;;11.40;95.40;;;;;;5040228;28;20300;-72
2022/10/05 00:42:32;;;;;;;12.97;8.67;;;11.40;95.40;;;;;;5037633;28;20200;-71
2022/10/05 00:45:26;;;;;;;13.97;7.60;;;11.40;95.20;;;;;;5026646;28;20364;-71
2022/10/05 00:47:57;;;;;;;14.27;8.13;;;11.30;95.50;;;;;;5028299;28;20428;-70
2022/10/05 00:50:42;;;;;;;17.40;8.97;;;11.30;95.80;;;;;;5037779;28;20993;-70
2022/10/05 00:53:25;;;;;;;14.03;8.20;;;11.20;95.80;;;;;;5033288;28;20427;-71
2022/10/05 00:56:07;;;;;;;13.20;8.03;;;11.20;95.90;;;;;;5031754;28;20463;-70
2022/10/05 00:58:57;;;;;;;15.13;8.50;;;11.20;96.00;;;;;;5036121;28;20427;-70
2022/10/05 01:01:23;;;;;;;15.47;8.33;;;11.20;95.90;;;;;;5032911;28;20808;-70
2022/10/05 01:04:16;;;;;;;16.43;8.13;;;11.20;95.90;;;;;;5032244;28;20466;-69
2022/10/05 01:07:22;;;;;;;12.90;8.20;;;11.20;96.10;;;;;;5032981;28;20255;-70
2022/10/05 01:10:25;;;;;;;13.27;8.53;;;11.20;96.00;;;;;;5032588;28;21191;-71
2022/10/05 01:12:50;;;;;;;11.73;7.47;;;11.20;96.00;;;;;;5032875;28;20420;-71
2022/10/05 01:15:39;;;;;;;15.53;8.70;;;11.20;96.00;;;;;;5032117;28;20478;-71
2022/10/05 01:18:26;;;;;;;11.90;7.60;;;11.20;95.90;;;;;;5018814;28;20231;-71
2022/10/05 01:21:02;;;;;;;14.90;8.63;;;11.10;95.90;;;;;;5027491;28;20443;-70
2022/10/05 01:23:56;;;;;;;12.53;8.10;;;11.20;96.00;;;;;;5027100;28;20463;-72
2022/10/05 01:26:46;;;;;;;12.73;7.90;;;11.20;96.00;;;;;;5032356;28;20419;-71
2022/10/05 01:29:22;;;;;;;15.50;7.87;;;11.10;95.90;;;;;;5025568;28;20421;-71
2022/10/05 01:32:03;;;;;;;14.60;9.47;;;11.20;96.00;;;;;;5025358;28;20486;-71
2022/10/05 01:34:42;;;;;;;10.43;7.70;;;11.10;95.80;;;;;;5018934;28;20456;-71
2022/10/05 01:37:17;;;;;;;13.67;8.20;;;11.10;95.80;;;;;;5033602;28;20412;-70
2022/10/05 01:39:56;;;;;;;12.77;8.13;;;11.10;95.80;;;;;;5033619;28;20442;-71
2022/10/05 01:43:03;;;;;;;15.20;8.60;;;11.00;95.80;;;;;;5032647;28;20451;-70
2022/10/05 01:45:45;;;;;;;10.30;7.47;;;11.10;95.80;;;;;;5028918;28;20436;-70
2022/10/05 01:48:33;;;;;;;13.80;8.77;;;11.00;95.80;;;;;;5031935;28;20440;-71
2022/10/05 01:50:58;;;;;;;12.53;7.57;;;11.00;95.70;;;;;;5022133;28;20422;-72
2022/10/05 01:53:51;;;;;;;12.33;8.20;;;11.00;95.70;;;;;;5024508;28;20544;-70
2022/10/05 01:56:53;;;;;;;13.23;8.20;;;11.00;95.80;;;;;;5028355;28;20216;-70
2022/10/05 01:59:33;;;;;;;15.93;8.57;;;10.90;95.80;;;;;;5027502;28;20919;-69
2022/10/05 02:02:03;;;;;;;12.00;8.47;;;11.00;95.80;;;;;;5030560;28;20771;-71
2022/10/05 02:04:33;;;;;;;14.67;8.00;;;10.90;95.70;;;;;;5028571;28;20545;-73
2022/10/05 02:07:02;;;;;;;15.90;8.23;;;10.90;95.80;;;;;;5028494;28;20430;-70
2022/10/05 02:09:35;;;;;;;15.23;9.00;;;10.90;95.80;;;;;;5027266;28;20478;-70
2022/10/05 02:12:08;;;;;;;12.63;8.20;;;10.80;96.00;;;;;;5028051;28;20467;-71
2022/10/05 02:14:41;;;;;;;14.40;8.87;;;10.80;96.00;;;;;;5026236;28;20463;-72
2022/10/05 02:17:16;;;;;;;15.87;9.70;;;10.80;96.00;;;;;;5031185;28;20497;-71
2022/10/05 02:19:46;;;;;;;13.33;8.50;;;10.80;96.00;;;;;;5023422;28;20582;-70
2022/10/05 02:22:18;;;;;;;13.87;8.33;;;10.70;96.00;;;;;;5030079;28;20443;-71
2022/10/05 02:24:51;;;;;;;17.37;9.10;;;10.70;96.00;;;;;;5023275;28;20459;-71
2022/10/05 02:27:29;;;;;;;18.47;9.20;;;10.70;96.10;;;;;;5026310;28;20447;-71
2022/10/05 02:30:01;;;;;;;15.10;8.53;;;10.70;96.10;;;;;;5025641;28;20416;-71
2022/10/05 02:32:39;;;;;;;15.70;9.30;;;10.70;96.00;;;;;;5029869;28;20416;-72
2022/10/05 02:35:13;;;;;;;15.10;9.03;;;10.70;95.90;;;;;;5028865;28;20478;-71
2022/10/05 02:37:42;;;;;;;13.37;8.67;;;10.60;96.00;;;;;;5030859;28;20510;-71
2022/10/05 02:40:35;;;;;;;12.13;8.47;;;10.70;96.00;;;;;;5028789;28;20427;-71
2022/10/05 02:43:37;;;;;;;16.70;9.80;;;10.60;96.00;;;;;;5020328;28;20431;-72
2022/10/05 02:46:41;;;;;;;15.90;9.60;;;10.60;96.00;;;;;;5029766;28;20904;-70
2022/10/05 02:49:34;;;;;;;18.30;10.50;;;10.60;96.30;;;;;;5004205;28;20427;-71
2022/10/05 02:52:12;;;;;;;20.20;9.87;;;10.60;96.30;;;;;;5023808;28;20505;-70
2022/10/05 02:55:18;;;;;;;15.13;9.73;;;10.60;96.30;;;;;;5026202;28;20810;-71
2022/10/05 02:58:10;;;;;;;14.00;8.40;;;10.60;96.50;;;;;;5028556;28;20539;-71
2022/10/05 03:00:46;;;;;;;16.37;9.60;;;10.60;96.50;;;;;;5035340;28;20421;-72
2022/10/05 03:03:32;;;;;;;16.30;9.07;;;10.70;96.40;;;;;;5026102;28;22473;-71
2022/10/05 03:06:04;;;;;;;14.83;9.67;;;10.70;96.30;;;;;;5018288;28;20418;-70
2022/10/05 03:08:35;;;;;;;18.50;9.13;;;10.70;96.20;;;;;;5028958;28;20469;-70
2022/10/05 03:11:17;;;;;;;19.57;10.50;;;10.70;96.20;;;;;;5029699;28;20785;-71
2022/10/05 03:14:04;;;;;;;15.40;9.13;;;10.60;96.10;;;;;;5025102;28;20459;-72
2022/10/05 03:16:37;;;;;;;13.93;8.93;;;10.70;96.20;;;;;;5029423;28;20471;-71
2022/10/05 03:19:25;;;;;;;15.77;9.50;;;10.70;96.30;;;;;;5029803;28;20443;-71
2022/10/05 03:22:13;;;;;;;16.13;9.17;;;10.70;96.30;;;;;;5024289;28;20404;-71
2022/10/05 03:25:18;;;;;;;16.83;9.50;;;10.70;96.30;;;;;;5023738;28;20482;-70
2022/10/05 03:27:52;;;;;;;12.27;8.57;;;10.70;96.20;;;;;;5028873;28;20443;-71
2022/10/05 03:30:25;;;;;;;15.77;10.13;;;10.70;96.10;;;;;;5026726;28;20404;-71
2022/10/05 03:33:21;;;;;;;17.07;8.97;;;10.70;96.10;;;;;;5026768;28;20502;-70
2022/10/05 03:36:11;;;;;;;14.17;9.60;;;10.70;96.20;;;;;;5026364;28;20468;-71
2022/10/05 03:38:36;;;;;;;16.70;9.50;;;10.80;96.20;;;;;;5025293;28;20416;-70
2022/10/05 03:41:20;;;;;;;14.37;8.80;;;10.80;96.10;;;;;;5026481;28;20481;-70
2022/10/05 03:44:06;;;;;;;19.17;10.90;;;10.80;95.90;;;;;;5025722;28;20204;-71
2022/10/05 03:47:02;;;;;;;16.77;9.70;;;10.70;95.70;;;;;;5027848;28;20788;-72
2022/10/05 03:49:52;;;;;;;16.20;9.63;;;10.70;96.00;;;;;;5028564;28;20412;-72
2022/10/05 03:52:28;;;;;;;17.80;8.40;;;10.70;95.90;;;;;;5023886;28;20416;-71
2022/10/05 03:55:19;;;;;;;20.00;9.23;;;10.60;95.90;;;;;;5023512;28;20497;-72
2022/10/05 03:57:47;;;;;;;17.50;10.20;;;10.60;95.90;;;;;;5029668;28;20836;-72
2022/10/05 04:00:17;;;;;;;19.13;9.20;;;10.60;95.80;;;;;;5029765;28;20416;-72
2022/10/05 04:02:49;;;;;;;21.07;9.67;;;10.60;95.90;;;;;;5029133;28;20427;-71
2022/10/05 04:05:47;;;;;;;15.50;8.87;;;10.60;95.90;;;;;;5019181;28;20443;-72
2022/10/05 04:08:27;;;;;;;15.67;9.10;;;10.60;95.90;;;;;;5026799;28;20411;-70
2022/10/05 04:11:06;;;;;;;18.10;9.73;;;10.60;95.90;;;;;;5029822;28;20416;-70
2022/10/05 04:13:31;;;;;;;16.37;10.00;;;10.50;95.90;;;;;;5022122;28;20460;-70
2022/10/05 04:16:12;;;;;;;19.43;11.83;;;10.50;96.00;;;;;;5029838;28;20803;-71
2022/10/05 04:18:42;;;;;;;14.43;9.60;;;10.40;96.10;;;;;;5034426;28;20685;-71
2022/10/05 04:21:19;;;;;;;14.30;8.90;;;10.40;96.10;;;;;;5034328;28;20438;-71
2022/10/05 04:23:58;;;;;;;15.97;9.50;;;10.40;96.30;;;;;;5028631;28;20458;-72
2022/10/05 04:26:40;;;;;;;20.80;10.57;;;10.40;96.30;;;;;;5031869;28;20418;-70
2022/10/05 04:29:30;;;;;;;16.80;9.90;;;10.40;96.40;;;;;;5035853;28;20501;-70
2022/10/05 04:32:14;;;;;;;15.43;9.83;;;10.50;96.50;;;;;;5026081;28;20496;-71
2022/10/05 04:34:51;;;;;;;15.20;9.27;;;10.40;96.50;;;;;;5024371;28;20522;-71
2022/10/05 04:37:27;;;;;;;18.43;10.20;;;10.30;96.70;;;;;;5030408;28;21290;-72
2022/10/05 04:40:03;;;;;;;16.97;9.43;;;10.30;96.80;;;;;;5028484;28;20412;-71
2022/10/05 04:42:42;;;;;;;19.73;11.20;;;10.40;96.90;;;;;;5032384;28;20491;-71
2022/10/05 04:45:23;;;;;;;18.80;11.10;;;10.40;96.90;;;;;;5030862;28;20455;-71
2022/10/05 04:48:03;;;;;;;19.40;10.20;;;10.40;96.90;;;;;;5030900;28;20428;-71
2022/10/05 04:50:41;;;;;;;19.67;10.93;;;10.30;96.90;;;;;;5032579;28;20927;-71
2022/10/05 04:53:26;;;;;;;17.83;10.03;;;10.30;96.80;;;;;;5025724;28;20415;-70
2022/10/05 04:56:09;;;;;;;14.83;9.50;;;10.30;96.80;;;;;;5031260;28;20455;-71
2022/10/05 04:58:41;;;;;;;21.47;10.70;;;10.30;96.80;;;;;;5029594;28;20472;-70
2022/10/05 05:01:41;;;;;;;19.17;11.17;;;10.30;96.70;;;;;;5033205;28;20422;-70
2022/10/05 05:04:19;;;;;;;16.73;10.50;;;10.30;96.70;;;;;;4950530;28;20463;-72
2022/10/05 05:06:53;;;;;;;22.03;11.40;;;10.30;96.60;;;;;;4951829;29;20428;-71
2022/10/05 05:09:37;;;;;;;21.60;10.50;;;10.20;96.60;;;;;;4952109;29;20494;-71
2022/10/05 05:12:33;;;;;;;17.53;10.00;;;10.20;96.60;;;;;;4951904;29;20506;-70
2022/10/05 05:15:01;;;;;;;16.67;10.07;;;10.20;96.60;;;;;;4966937;28;20467;-71
2022/10/05 05:17:53;;;;;;;17.87;10.47;;;10.20;96.60;;;;;;4951745;29;20420;-73
2022/10/05 05:20:21;;;;;;;19.00;10.50;;;10.20;96.50;;;;;;4935322;29;20523;-73
2022/10/05 05:23:03;;;;;;;23.97;12.80;;;10.30;96.50;;;;;;4938223;29;20418;-76
2022/10/05 05:25:29;;;;;;;24.40;11.60;;;10.20;96.50;;;;;;4952308;29;20467;-75
2022/10/05 05:27:59;;;;;;;19.63;11.20;;;10.20;96.60;;;;;;4951356;28;20462;-75
2022/10/05 05:30:36;;;;;;;18.67;11.13;;;10.10;96.60;;;;;;4949911;29;20275;-74
2022/10/05 05:33:19;;;;;;;19.20;10.20;;;10.00;96.60;;;;;;4949512;28;20439;-76
2022/10/05 05:35:54;;;;;;;17.27;10.23;;;10.10;96.80;;;;;;4951216;28;21231;-75
2022/10/05 05:38:35;;;;;;;19.17;10.70;;;10.10;96.80;;;;;;4951997;29;20427;-76
2022/10/05 05:41:23;;;;;;;18.23;11.03;;;10.10;96.80;;;;;;5025406;28;20446;-73
2022/10/05 05:44:04;;;;;;;17.40;10.30;;;10.10;96.70;;;;;;5025247;28;20561;-71
2022/10/05 05:46:37;;;;;;;22.97;12.70;;;10.10;96.70;;;;;;5031712;28;20541;-71
2022/10/05 05:49:13;;;;;;;22.67;12.60;;;10.00;96.60;;;;;;5030984;28;20407;-72
2022/10/05 05:51:46;;;;;;;22.23;11.20;;;9.90;96.70;;;;;;5028058;28;20610;-72
2022/10/05 05:54:14;;;;;;;18.63;11.37;;;9.90;96.90;;;;;;5025372;28;20546;-71
2022/10/05 05:56:51;;;;;;;27.17;13.17;;;10.00;96.90;;;;;;5032590;28;20467;-72
2022/10/05 05:59:24;;;;;;;20.30;11.13;;;9.90;96.60;;;;;;5031651;28;20441;-72
2022/10/05 06:01:55;;;;;;;20.43;9.93;;;9.80;96.60;;;;;;5028820;28;20517;-73
2022/10/05 06:04:26;;;;;;;22.00;11.30;;;9.90;96.90;;;;;;5028808;28;20459;-73
2022/10/05 06:06:55;;;;;;;26.90;13.30;;;9.90;96.70;;;;;;5029535;28;20432;-72
2022/10/05 06:09:42;;;;;;;21.53;11.17;;;9.90;96.50;;;;;;5032895;28;20435;-73
2022/10/05 06:12:21;;;;;;;22.47;10.63;;;9.90;96.50;;;;;;5032421;28;20465;-72
2022/10/05 06:14:56;;;;;;;23.77;12.97;;;10.00;96.40;;;;;;5030310;28;20506;-72
2022/10/05 06:17:47;;;;;;;22.83;12.90;;;10.10;96.20;;;;;;5031377;28;20423;-72
2022/10/05 06:20:39;;;;;;;22.40;11.00;;;10.10;96.10;;;;;;5025151;28;20416;-73
2022/10/05 06:23:13;;;;;;;24.47;12.00;;;10.00;96.00;;;;;;5028575;28;20457;-72
2022/10/05 06:26:13;;;;;;;27.83;13.10;;;9.80;95.70;;;;;;5024294;28;20529;-71
2022/10/05 06:28:40;;;;;;;25.80;12.30;;;9.70;96.00;;;;;;5029204;28;20427;-72
2022/10/05 06:31:18;;;;;;;23.70;12.00;;;9.70;96.20;;;;;;5025691;28;20438;-72
2022/10/05 06:33:52;;;;;;;18.20;11.00;;;9.80;96.30;;;;;;5024930;28;20592;-71
2022/10/05 06:36:42;;;;;;;21.73;11.23;;;9.90;96.20;;;;;;5030546;28;20467;-72
2022/10/05 06:39:31;;;;;;;25.43;11.87;;;10.00;96.10;;;;;;5027932;28;20412;-73
2022/10/05 06:42:25;;;;;;;24.07;12.07;;;10.10;95.80;;;;;;5025488;28;20427;-71
2022/10/05 06:44:59;;;;;;;24.77;12.00;;;10.00;95.70;;;;;;5026162;28;20936;-71
2022/10/05 06:47:35;;;;;;;23.17;11.80;;;10.10;95.70;;;;;;5028878;28;20501;-72
2022/10/05 06:50:17;;;;;;;21.37;11.10;;;10.10;95.80;;;;;;5029876;28;20939;-73
2022/10/05 06:52:46;;;;;;;25.23;12.70;;;10.20;95.60;;;;;;5029408;28;20431;-72
2022/10/05 06:55:19;;;;;;;21.70;10.57;;;10.20;95.40;;;;;;5027154;28;20475;-72
2022/10/05 06:57:44;;;;;;;24.50;11.47;;;10.30;95.50;;;;;;5030749;28;20419;-72
2022/10/05 07:00:16;;;;;;;27.30;13.03;;;10.30;95.40;;;;;;5025857;28;20811;-71
2022/10/05 07:03:08;;;;;;;26.33;10.93;;;10.30;95.30;;;;;;5029875;28;20185;-72
2022/10/05 07:05:46;;;;;;;19.23;11.87;;;10.50;95.30;;;;;;5028477;28;20419;-72
2022/10/05 07:08:26;;;;;;;20.83;10.63;;;10.60;95.10;;;;;;5027125;28;20424;-73
2022/10/05 07:11:04;;;;;;;18.80;10.70;;;10.60;95.00;;;;;;5024260;28;20419;-72
2022/10/05 07:13:54;;;;;;;19.87;11.40;;;10.60;94.70;;;;;;5023901;28;20456;-72
2022/10/05 07:16:46;;;;;;;17.03;10.60;;;10.70;94.60;;;;;;5030688;28;20547;-72
2022/10/05 07:19:44;;;;;;;20.00;10.53;;;10.80;94.50;;;;;;5018545;28;20491;-71
2022/10/05 07:22:30;;;;;;;16.00;11.40;;;10.80;94.40;;;;;;5022998;28;20438;-72
2022/10/05 07:25:23;;;;;;;22.90;10.00;;;10.80;94.20;;;;;;5025951;28;20448;-72
2022/10/05 07:27:55;;;;;;;17.53;10.23;;;10.90;94.20;;;;;;5029629;28;20444;-71
2022/10/05 07:30:21;;;;;;;17.30;11.00;;;10.80;94.10;;;;;;5027336;28;20420;-73
2022/10/05 07:33:12;;;;;;;20.47;11.90;;;11.00;94.10;;;;;;5028116;28;20427;-72
2022/10/05 07:39:08;;;;;;;19.57;12.03;;;11.00;93.90;;;;;;5028327;28;20415;-73
2022/10/05 07:41:47;;;;;;;18.30;11.17;;;11.10;93.70;;;;;;5018271;28;20447;-72
2022/10/05 07:44:34;;;;;;;24.03;12.40;;;11.00;93.80;;;;;;5028293;28;20462;-72
2022/10/05 07:47:06;;;;;;;20.60;11.53;;;11.00;94.10;;;;;;5030458;28;20501;-72
2022/10/05 07:49:56;;;;;;;16.10;11.40;;;11.20;94.00;;;;;;5025267;28;20453;-72
2022/10/05 07:52:37;;;;;;;21.63;11.23;;;11.20;93.80;;;;;;5027132;28;20416;-72
2022/10/05 07:55:30;;;;;;;27.10;12.83;;;11.30;93.70;;;;;;5032131;28;20455;-71
2022/10/05 07:58:19;;;;;;;19.80;11.20;;;11.40;93.60;;;;;;5031141;28;20412;-71
2022/10/05 08:01:10;;;;;;;21.03;11.40;;;11.40;93.60;;;;;;5032144;28;20428;-72
2022/10/05 08:03:48;;;;;;;15.80;10.90;;;11.50;93.50;;;;;;5031923;28;20491;-72
2022/10/05 08:06:31;;;;;;;22.10;12.43;;;11.50;93.60;;;;;;5034541;28;20814;-71
2022/10/05 08:09:21;;;;;;;24.90;12.00;;;11.60;93.60;;;;;;5028038;28;20434;-72
2022/10/05 08:12:09;;;;;;;17.27;11.10;;;11.60;93.70;;;;;;5028823;28;20426;-72
2022/10/05 08:14:56;;;;;;;20.47;11.33;;;11.70;93.30;;;;;;5027288;28;21614;-72
2022/10/05 08:18:01;;;;;;;18.13;10.87;;;11.70;92.90;;;;;;5031490;28;20790;-72
2022/10/05 08:20:54;;;;;;;20.07;11.20;;;11.80;92.90;;;;;;5026626;28;20429;-72
2022/10/05 08:23:41;;;;;;;17.43;11.70;;;11.90;92.80;;;;;;5030016;28;20456;-72
2022/10/05 08:26:10;;;;;;;19.80;10.53;;;11.90;92.20;;;;;;5027932;28;20470;-72
2022/10/05 08:28:49;;;;;;;25.63;11.40;;;12.00;92.10;;;;;;5032982;28;20445;-71
2022/10/05 08:31:23;;;;;;;22.57;11.57;;;12.00;91.90;;;;;;5030427;28;20918;-72
2022/10/05 08:34:24;;;;;;;14.67;9.87;;;12.10;91.90;;;;;;5030190;28;21008;-71
2022/10/05 08:37:01;;;;;;;19.33;10.87;;;12.20;91.90;;;;;;4971823;28;20481;-72
2022/10/05 08:39:39;;;;;;;18.47;10.50;;;12.30;91.70;;;;;;4971306;28;20453;-72
2022/10/05 08:42:31;;;;;;;16.80;10.63;;;12.30;91.50;;;;;;4964956;28;20672;-74
2022/10/05 08:45:44;;;;;;;21.50;11.30;;;12.50;91.40;;;;;;4968677;28;20469;-72
2022/10/05 08:48:13;;;;;;;21.77;11.20;;;12.60;91.20;;;;;;4982902;28;21106;-71
2022/10/05 08:51:02;;;;;;;29.30;12.67;;;12.70;90.90;;;;;;4971388;28;20418;-71
2022/10/05 08:54:04;;;;;;;17.20;11.53;;;12.70;90.80;;;;;;4973323;28;21002;-72
2022/10/05 08:56:35;;;;;;;23.13;12.57;;;12.90;90.80;;;;;;4979483;28;20897;-72
2022/10/05 08:59:22;;;;;;;24.33;12.50;;;13.00;90.40;;;;;;4971511;28;20477;-71
2022/10/05 09:02:25;;;;;;;19.70;12.33;;;13.20;90.30;;;;;;4970888;28;20418;-73
2022/10/05 09:05:20;;;;;;;17.70;12.90;;;13.20;89.60;;;;;;4970931;28;20462;-72
2022/10/05 09:08:29;;;;;;;20.40;12.90;;;13.30;89.50;;;;;;4982399;28;20452;-72
2022/10/05 09:11:02;;;;;;;25.63;12.37;;;13.50;89.30;;;;;;4992201;28;20436;-72
2022/10/05 09:13:46;;;;;;;18.67;11.63;;;13.70;88.90;;;;;;5028436;28;20514;-71
2022/10/05 09:16:50;;;;;;;20.00;12.00;;;13.80;88.40;;;;;;5028719;28;20460;-72
2022/10/05 09:19:51;;;;;;;19.10;11.00;;;13.90;87.80;;;;;;5028529;28;20404;-72
2022/10/05 09:22:47;;;;;;;17.30;11.30;;;14.00;87.60;;;;;;5027595;28;20762;-72
2022/10/05 09:25:36;;;;;;;23.33;10.23;;;14.10;87.10;;;;;;5029392;28;20475;-72
2022/10/05 09:28:41;;;;;;;20.60;11.33;;;14.20;86.90;;;;;;5025011;28;20424;-73
2022/10/05 09:31:15;;;;;;;18.60;10.33;;;14.30;86.60;;;;;;5029767;28;20434;-72
2022/10/05 09:34:00;;;;;;;19.73;10.30;;;14.40;86.30;;;;;;5029312;28;20463;-71
2022/10/05 09:36:37;;;;;;;15.67;10.27;;;14.60;86.30;;;;;;5032576;28;20820;-73
2022/10/05 09:39:41;;;;;;;15.37;9.90;;;14.70;85.50;;;;;;5033006;28;20431;-72
2022/10/05 09:42:26;;;;;;;16.33;9.17;;;14.80;85.30;;;;;;5025600;28;20447;-72
2022/10/05 09:45:17;;;;;;;14.83;9.73;;;15.10;85.60;;;;;;5027326;28;20594;-72
2022/10/05 09:48:06;;;;;;;19.97;10.00;;;15.20;85.00;;;;;;5031065;28;20417;-72
2022/10/05 09:50:59;;;;;;;17.30;10.00;;;15.30;84.00;;;;;;5030364;28;21033;-71
2022/10/05 09:53:46;;;;;;;15.20;8.60;;;15.50;83.40;;;;;;5024107;28;20564;-72
2022/10/05 09:56:36;;;;;;;18.33;10.10;;;15.60;83.40;;;;;;5031004;28;20468;-72
2022/10/05 09:59:35;;;;;;;25.53;9.33;;;15.70;83.10;;;;;;5024778;28;20539;-73
2022/10/05 10:02:19;;;;;;;16.70;8.83;;;15.90;82.40;;;;;;5030657;28;20859;-73
2022/10/05 10:05:04;;;;;;;15.50;8.33;;;16.10;82.20;;;;;;5027818;28;20547;-73
2022/10/05 10:08:11;;;;;;;12.67;7.77;;;16.30;81.50;;;;;;5028749;28;20419;-73
2022/10/05 10:10:59;;;;;;;14.70;8.30;;;16.60;81.10;;;;;;4987262;28;20442;-72
2022/10/05 10:13:52;;;;;;;11.30;7.33;;;16.80;80.50;;;;;;4987495;28;20511;-72
2022/10/05 10:16:44;;;;;;;14.37;8.70;;;17.00;80.20;;;;;;4987197;28;20473;-72
2022/10/05 10:19:24;;;;;;;20.90;7.73;;;17.10;79.90;;;;;;4985647;28;21296;-72
2022/10/05 10:22:15;;;;;;;11.63;7.57;;;17.30;79.00;;;;;;4980901;28;20793;-72
2022/10/05 10:24:52;;;;;;;10.00;7.77;;;17.70;79.50;;;;;;4987370;28;21024;-73
2022/10/05 10:27:41;;;;;;;11.77;7.73;;;18.20;76.50;;;;;;4988607;28;21451;-72
2022/10/05 10:30:40;;;;;;;12.30;7.50;;;18.60;75.40;;;;;;4989571;28;20434;-73
2022/10/05 10:33:35;;;;;;;11.03;6.80;;;18.90;74.60;;;;;;4983472;28;20948;-72
2022/10/05 10:36:12;;;;;;;7.33;5.40;;;19.30;72.70;;;;;;4972623;28;20526;-72
2022/10/05 10:38:44;;;;;;;10.10;6.67;;;19.50;72.30;;;;;;4988202;28;20434;-72
2022/10/05 10:41:15;;;;;;;10.70;6.37;;;20.00;70.70;;;;;;4988617;28;20944;-74
2022/10/05 10:44:22;;;;;;;8.93;6.10;;;20.50;69.50;;;;;;4992097;28;20463;-73
2022/10/05 10:47:21;;;;;;;8.20;4.40;;;21.30;69.10;;;;;;5025874;28;20426;-73
2022/10/05 10:50:05;;;;;;;7.83;4.60;;;21.70;65.70;;;;;;5027205;28;20435;-73
2022/10/05 10:52:39;;;;;;;18.30;6.13;;;22.30;65.60;;;;;;5029266;28;20455;-72
2022/10/05 10:55:34;;;;;;;10.10;5.30;;;23.10;63.80;;;;;;5022750;28;20491;-72
2022/10/05 10:58:33;;;;;;;5.90;3.10;;;23.60;62.30;;;;;;5030211;28;20418;-73
2022/10/05 11:01:28;;;;;;;3.07;2.50;;;24.00;58.10;;;;;;5025819;28;20435;-72
2022/10/05 11:04:31;;;;;;;4.50;2.80;;;24.00;58.20;;;;;;5026539;28;20446;-71
2022/10/05 11:07:34;;;;;;;3.53;2.93;;;24.10;57.80;;;;;;5026916;28;20422;-71
2022/10/05 11:10:29;;;;;;;4.47;2.53;;;24.00;57.70;;;;;;5029604;28;20532;-70
2022/10/05 11:13:26;;;;;;;3.00;2.60;;;23.80;58.00;;;;;;5026749;28;20421;-72
2022/10/05 11:16:10;;;;;;;5.00;2.60;;;23.70;58.80;;;;;;5024922;28;20473;-72
2022/10/05 11:18:45;;;;;;;2.90;2.63;;;23.70;58.90;;;;;;5023817;28;20418;-71
2022/10/05 11:21:24;;;;;;;6.83;3.07;;;23.70;59.20;;;;;;5029226;28;20779;-70
2022/10/05 11:24:08;;;;;;;3.70;3.43;;;23.70;59.50;;;;;;5026407;28;20461;-74
2022/10/05 11:26:41;;;;;;;2.93;2.70;;;23.90;59.20;;;;;;5027502;28;20932;-71
2022/10/05 11:29:16;;;;;;;5.00;3.27;;;23.90;58.80;;;;;;5032584;28;20414;-70
2022/10/05 11:32:15;;;;;;;4.00;2.90;;;24.00;58.80;;;;;;5034154;28;20468;-73
2022/10/05 11:34:59;;;;;;;3.13;2.60;;;24.00;58.50;;;;;;5029359;28;20469;-72
2022/10/05 11:37:48;;;;;;;5.03;3.10;;;24.00;58.40;;;;;;5033637;28;20470;-70
2022/10/05 11:40:30;;;;;;;3.93;2.90;;;24.00;58.00;;;;;;5030448;28;20444;-70
2022/10/05 11:43:22;;;;;;;3.27;2.97;;;24.20;58.20;;;;;;5024353;28;21337;-72
2022/10/05 11:46:08;;;;;;;3.27;2.60;;;24.20;58.40;;;;;;5030937;28;20426;-71
2022/10/05 11:48:45;;;;;;;4.07;2.83;;;24.30;58.50;;;;;;5032689;28;20933;-72
2022/10/05 11:51:17;;;;;;;3.53;2.70;;;24.20;58.50;;;;;;5028060;28;20986;-70
2022/10/05 11:53:57;;;;;;;5.27;3.20;;;24.30;58.50;;;;;;5030130;28;20485;-71
2022/10/05 11:56:33;;;;;;;8.20;3.33;;;24.50;58.40;;;;;;5033170;28;21023;-73
2022/10/05 11:59:11;;;;;;;5.90;3.17;;;24.40;58.50;;;;;;5029201;28;20666;-72
2022/10/05 12:01:40;;;;;;;6.73;3.50;;;24.40;58.90;;;;;;5028222;28;20465;-72
2022/10/05 12:04:33;;;;;;;3.83;3.20;;;24.60;58.40;;;;;;5029435;28;20466;-72
2022/10/05 12:07:12;;;;;;;3.73;3.27;;;24.60;58.70;;;;;;5025849;28;20949;-73
2022/10/05 12:12:39;;;;;;;7.23;2.63;;;24.90;57.70;;;;;;5031568;28;20403;-71
2022/10/05 12:15:31;;;;;;;3.60;3.00;;;25.20;57.70;;;;;;5027984;28;20489;-71
2022/10/05 12:18:15;;;;;;;5.23;3.33;;;25.40;57.30;;;;;;5035554;28;20428;-75
2022/10/05 12:20:49;;;;;;;5.60;3.83;;;25.60;56.60;;;;;;5034296;28;20448;-71
2022/10/05 12:23:27;;;;;;;3.80;2.90;;;25.70;56.10;;;;;;5027519;28;20436;-71
2022/10/05 12:26:03;;;;;;;5.23;3.27;;;25.90;55.40;;;;;;5030684;28;20418;-71
2022/10/05 12:28:36;;;;;;;5.07;3.33;;;25.60;56.20;;;;;;5034547;28;20421;-73
2022/10/05 12:31:34;;;;;;;3.50;2.80;;;25.70;55.70;;;;;;5030993;28;20809;-75
2022/10/05 12:34:00;;;;;;;5.47;3.30;;;25.50;56.50;;;;;;5027970;28;20457;-73
2022/10/05 12:36:32;;;;;;;5.93;3.30;;;25.50;56.60;;;;;;5034958;28;20504;-72
2022/10/05 12:39:16;;;;;;;4.57;3.00;;;25.60;56.00;;;;;;5028462;28;20542;-74
2022/10/05 12:42:10;;;;;;;4.27;3.53;;;25.70;56.50;;;;;;5033474;28;20500;-71
2022/10/05 12:44:48;;;;;;;3.20;3.03;;;26.00;56.20;;;;;;5020863;28;20536;-71
2022/10/05 12:47:27;;;;;;;3.47;2.80;;;26.20;54.50;;;;;;5035117;28;20414;-72
2022/10/05 12:50:00;;;;;;;6.93;3.20;;;26.40;54.40;;;;;;5029471;28;20781;-71
2022/10/05 12:52:47;;;;;;;3.70;2.53;;;26.50;53.40;;;;;;5032034;28;20507;-72
2022/10/05 12:55:25;;;;;;;3.33;2.93;;;26.40;52.40;;;;;;5029909;28;20484;-71
2022/10/05 12:58:19;;;;;;;2.90;2.30;;;26.20;51.70;;;;;;5026789;28;21098;-73
2022/10/05 13:01:23;;;;;;;5.17;2.63;;;26.10;50.70;;;;;;5016102;28;20423;-73
2022/10/05 13:04:08;;;;;;;2.90;2.10;;;26.10;49.10;;;;;;5024689;28;20527;-72
2022/10/05 13:07:15;;;;;;;3.00;2.00;;;26.00;48.60;;;;;;5034804;28;20418;-71
2022/10/05 13:09:45;;;;;;;2.43;2.13;;;26.10;47.10;;;;;;5028768;28;20438;-71
2022/10/05 13:13:00;;;;;;;2.00;1.80;;;26.10;46.90;;;;;;5035019;28;20424;-70
2022/10/05 13:15:36;;;;;;;6.83;5.07;;;26.00;46.60;;;;;;5002507;28;20480;-71
2022/10/05 13:18:39;;;;;;;2.80;1.73;;;25.90;46.30;;;;;;5040047;28;20433;-70
2022/10/05 13:21:11;;;;;;;1.77;1.67;;;26.00;46.10;;;;;;5037865;28;20422;-72
2022/10/05 13:23:49;;;;;;;4.83;2.00;;;25.90;46.60;;;;;;5035425;28;20463;-71
2022/10/05 13:26:31;;;;;;;3.90;2.07;;;26.00;47.00;;;;;;5036306;28;20446;-70
2022/10/05 13:29:24;;;;;;;2.37;1.70;;;26.00;47.10;;;;;;5038283;28;20450;-71
2022/10/05 13:31:54;;;;;;;2.33;1.80;;;26.00;47.30;;;;;;5030224;28;20471;-72
2022/10/05 13:34:25;;;;;;;2.33;1.93;;;26.10;47.40;;;;;;5027997;28;20459;-71
2022/10/05 13:37:10;;;;;;;2.00;1.73;;;26.10;46.10;;;;;;5033204;28;20459;-72
2022/10/05 13:40:19;;;;;;;1.97;1.70;;;26.10;45.70;;;;;;5032164;28;20424;-71
2022/10/05 13:42:58;;;;;;;2.50;1.70;;;26.10;45.10;;;;;;5014056;28;20452;-70
2022/10/05 13:45:28;;;;;;;1.40;1.40;;;26.10;45.10;;;;;;5029117;28;20429;-71
2022/10/05 13:48:19;;;;;;;1.70;1.63;;;26.20;44.30;;;;;;5030804;28;20458;-71
2022/10/05 13:50:59;;;;;;;2.17;1.70;;;26.20;44.50;;;;;;5029610;28;20422;-72
2022/10/05 13:53:44;;;;;;;2.37;1.93;;;26.20;44.30;;;;;;5027702;28;20453;-71
2022/10/05 13:56:20;;;;;;;4.03;1.70;;;26.20;44.30;;;;;;5031193;28;20469;-72
2022/10/05 13:59:11;;;;;;;1.93;1.70;;;26.40;44.60;;;;;;5024561;28;20419;-71